createdAt,value
2018-06-08T00:01:19.699Z,17.90
2018-06-08T00:03:48.691Z,18.00
2018-06-08T00:06:17.682Z,17.90
2018-06-08T00:08:46.744Z,17.90
2018-06-08T00:11:17.247Z,17.90
2018-06-08T00:13:46.298Z,17.80
2018-06-08T00:16:15.283Z,17.80
2018-06-08T00:18:44.631Z,17.80
2018-06-08T00:21:13.873Z,17.70
2018-06-08T00:23:43.088Z,17.70
2018-06-08T00:26:12.359Z,17.60
2018-06-08T00:28:41.616Z,17.70
2018-06-08T00:31:10.574Z,17.70
2018-06-08T00:33:39.591Z,17.70
2018-06-08T00:36:08.582Z,17.60
2018-06-08T00:41:06.099Z,17.60
2018-06-08T00:43:35.078Z,17.60
2018-06-08T00:46:04.068Z,17.50
2018-06-08T00:48:33.115Z,17.50
2018-06-08T00:51:02.340Z,17.60
2018-06-08T00:53:31.587Z,17.50
2018-06-08T00:56:00.830Z,17.50
2018-06-08T00:58:30.061Z,17.50
2018-06-08T01:00:59.320Z,17.50
2018-06-08T01:03:28.608Z,17.40
2018-06-08T01:05:57.563Z,17.40
2018-06-08T01:08:26.552Z,17.40
2018-06-08T01:13:24.093Z,17.30
2018-06-08T01:15:53.103Z,17.30
2018-06-08T01:18:22.202Z,17.30
2018-06-08T01:20:51.162Z,17.30
2018-06-08T01:23:20.145Z,17.20
2018-06-08T01:25:49.171Z,17.20
2018-06-08T01:28:18.151Z,17.20
2018-06-08T01:30:47.154Z,17.20
2018-06-08T01:33:16.139Z,17.10
2018-06-08T01:35:45.099Z,17.10
2018-06-08T01:38:14.081Z,17.10
2018-06-08T01:40:43.071Z,17.00
2018-06-08T01:43:12.052Z,17.10
2018-06-08T01:45:41.099Z,17.00
2018-06-08T01:48:11.232Z,17.00
2018-06-08T01:53:33.490Z,17.00
2018-06-08T01:56:03.700Z,17.00
2018-06-08T01:58:32.727Z,16.90
2018-06-08T02:01:01.792Z,16.90
2018-06-08T02:03:30.758Z,16.90
2018-06-08T02:05:59.959Z,16.90
2018-06-08T02:08:28.946Z,16.90
2018-06-08T02:10:57.989Z,16.80
2018-06-08T02:13:27.026Z,16.80
2018-06-08T02:15:55.982Z,16.80
2018-06-08T02:18:25.140Z,16.80
2018-06-08T02:20:54.348Z,16.80
2018-06-08T02:23:23.315Z,16.80
2018-06-08T02:25:52.330Z,16.80
2018-06-08T02:28:21.334Z,16.80
2018-06-08T02:30:50.294Z,16.80
2018-06-08T02:33:19.328Z,16.80
2018-06-08T02:35:48.419Z,16.80
2018-06-08T02:38:17.439Z,16.80
2018-06-08T02:40:46.459Z,16.80
2018-06-08T02:43:15.490Z,16.80
2018-06-08T02:45:44.455Z,16.80
2018-06-08T02:48:13.510Z,16.80
2018-06-08T02:50:42.555Z,16.80
2018-06-08T02:53:11.519Z,16.80
2018-06-08T02:55:40.516Z,16.70
2018-06-08T02:58:09.500Z,16.70
2018-06-08T03:00:38.486Z,16.80
2018-06-08T03:03:07.637Z,16.70
2018-06-08T03:05:36.652Z,16.70
2018-06-08T03:08:05.671Z,16.70
2018-06-08T03:10:36.190Z,16.70
2018-06-08T03:13:05.243Z,16.70
2018-06-08T03:15:34.267Z,16.60
2018-06-08T03:18:03.262Z,16.60
2018-06-08T03:20:32.214Z,16.60
2018-06-08T03:23:01.195Z,16.60
2018-06-08T03:25:30.190Z,16.60
2018-06-08T03:27:59.152Z,16.60
2018-06-08T03:30:28.130Z,16.60
2018-06-08T03:32:57.111Z,16.60
2018-06-08T03:35:26.064Z,16.60
2018-06-08T03:37:55.051Z,16.60
2018-06-08T03:40:24.038Z,16.60
2018-06-08T03:42:53.017Z,16.60
2018-06-08T03:45:22.038Z,16.60
2018-06-08T03:47:51.018Z,16.60
2018-06-08T03:50:20.015Z,16.60
2018-06-08T03:52:48.996Z,16.60
2018-06-08T03:55:18.238Z,16.70
2018-06-08T03:57:47.202Z,16.70
2018-06-08T04:00:16.235Z,16.70
2018-06-08T04:02:45.227Z,16.70
2018-06-08T04:07:42.711Z,16.80
2018-06-08T04:10:11.751Z,16.80
2018-06-08T04:12:40.991Z,16.90
2018-06-08T04:15:10.263Z,16.90
2018-06-08T04:17:40.717Z,16.90
2018-06-08T04:20:09.972Z,17.00
2018-06-08T04:22:39.250Z,17.00
2018-06-08T04:25:08.654Z,17.00
2018-06-08T04:27:37.734Z,17.10
2018-06-08T04:30:06.861Z,17.10
2018-06-08T04:32:35.863Z,17.20
2018-06-08T04:35:06.162Z,17.20
2018-06-08T04:37:35.166Z,17.20
2018-06-08T04:40:04.229Z,17.30
2018-06-08T04:42:33.607Z,17.30
2018-06-08T04:45:02.587Z,17.30
2018-06-08T04:47:31.571Z,17.30
2018-06-08T04:50:00.530Z,17.40
2018-06-08T04:52:29.518Z,17.40
2018-06-08T04:54:58.510Z,17.40
2018-06-08T04:57:27.487Z,17.50
2018-06-08T04:59:57.038Z,17.50
2018-06-08T05:02:26.051Z,17.50
2018-06-08T05:04:55.099Z,17.50
2018-06-08T05:07:24.826Z,17.60
2018-06-08T05:09:54.587Z,17.60
2018-06-08T05:12:23.594Z,17.60
2018-06-08T05:14:52.630Z,17.60
2018-06-08T05:17:21.831Z,17.60
2018-06-08T05:19:50.867Z,17.70
2018-06-08T05:22:22.612Z,17.70
2018-06-08T05:24:51.950Z,17.80
2018-06-08T05:27:20.932Z,17.80
2018-06-08T05:29:49.922Z,17.90
2018-06-08T05:32:18.974Z,17.90
2018-06-08T05:34:47.950Z,18.00
2018-06-08T05:37:17.423Z,18.00
2018-06-08T05:39:46.423Z,18.10
2018-06-08T05:42:15.495Z,18.10
2018-06-08T05:44:44.740Z,18.20
2018-06-08T05:47:13.952Z,18.30
2018-06-08T05:49:42.950Z,18.30
2018-06-08T05:52:11.909Z,18.30
2018-06-08T05:54:40.974Z,18.40
2018-06-08T05:57:10.134Z,18.50
2018-06-08T05:59:39.588Z,18.50
2018-06-08T06:02:08.886Z,18.60
2018-06-08T06:04:37.904Z,18.60
2018-06-08T06:07:07.142Z,18.70
2018-06-08T06:09:36.235Z,18.70
2018-06-08T06:12:05.480Z,18.80
2018-06-08T06:14:34.704Z,18.90
2018-06-08T06:17:04.094Z,18.90
2018-06-08T06:19:33.379Z,19.00
2018-06-08T06:22:02.351Z,19.00
2018-06-08T06:24:31.337Z,19.10
2018-06-08T06:27:00.386Z,19.20
2018-06-08T06:29:29.540Z,19.30
2018-06-08T06:31:58.821Z,19.30
2018-06-08T06:34:27.878Z,19.40
2018-06-08T06:36:57.066Z,19.50
2018-06-08T06:39:26.388Z,19.60
2018-06-08T06:41:55.720Z,19.70
2018-06-08T06:44:24.986Z,19.70
2018-06-08T06:46:54.494Z,19.80
2018-06-08T06:51:52.586Z,19.90
2018-06-08T06:54:21.576Z,20.00
2018-06-08T06:56:50.580Z,20.10
2018-06-08T06:59:19.539Z,20.20
2018-06-08T07:01:48.579Z,20.30
2018-06-08T07:04:17.595Z,20.40
2018-06-08T07:06:46.555Z,20.50
2018-06-08T07:09:15.546Z,20.60
2018-06-08T07:11:44.531Z,20.70
2018-06-08T07:14:13.766Z,20.80
2018-06-08T07:16:43.070Z,20.90
2018-06-08T07:19:12.070Z,21.00
2018-06-08T07:21:41.058Z,21.10
2018-06-08T07:24:10.038Z,21.20
2018-06-08T07:26:39.025Z,21.30
2018-06-08T07:29:07.987Z,21.50
2018-06-08T07:31:37.015Z,21.60
2018-06-08T07:34:06.067Z,21.70
2018-06-08T07:36:35.030Z,21.70
2018-06-08T07:39:06.462Z,21.80
2018-06-08T07:41:35.490Z,21.90
2018-06-08T07:44:08.302Z,21.90
2018-06-08T07:46:37.308Z,22.00
2018-06-08T07:49:06.326Z,22.10
2018-06-08T07:51:35.318Z,22.30
2018-06-08T07:54:04.418Z,22.40
2018-06-08T07:56:33.394Z,22.50
2018-06-08T07:59:02.422Z,22.60
2018-06-08T08:01:31.794Z,22.60
2018-06-08T08:04:00.742Z,22.70
2018-06-08T08:06:29.758Z,22.80
2018-06-08T08:08:58.766Z,22.90
2018-06-08T08:11:27.738Z,23.00
2018-06-08T08:13:56.734Z,23.10
2018-06-08T08:16:25.831Z,23.20
2018-06-08T08:18:54.811Z,23.30
2018-06-08T08:21:37.015Z,23.40
2018-06-08T08:24:07.575Z,23.50
2018-06-08T08:26:38.567Z,23.70
2018-06-08T08:29:09.246Z,23.80
2018-06-08T08:31:38.663Z,24.00
2018-06-08T08:34:07.677Z,24.00
2018-06-08T08:36:36.640Z,24.20
2018-06-08T08:39:09.150Z,24.30
2018-06-08T08:41:38.166Z,24.50
2018-06-08T08:44:07.158Z,24.60
2018-06-08T08:46:36.410Z,24.70
2018-06-08T08:49:05.527Z,24.80
2018-06-08T08:51:34.890Z,24.90
2018-06-08T08:54:04.099Z,25.00
2018-06-08T08:56:33.094Z,24.90
2018-06-08T08:59:02.054Z,25.00
2018-06-08T09:01:31.402Z,25.00
2018-06-08T09:04:00.410Z,25.00
2018-06-08T09:06:29.407Z,25.10
2018-06-08T09:08:59.043Z,25.10
2018-06-08T09:11:28.883Z,25.00
2018-06-08T09:13:57.883Z,25.00
2018-06-08T09:16:27.658Z,25.00
2018-06-08T09:18:57.823Z,24.90
2018-06-08T09:21:26.823Z,24.90
2018-06-08T09:23:55.842Z,24.80
2018-06-08T09:26:24.854Z,24.80
2018-06-08T09:28:53.846Z,24.80
2018-06-08T09:31:23.123Z,24.70
2018-06-08T09:33:52.197Z,24.80
2018-06-08T09:36:25.210Z,24.80
2018-06-08T09:38:54.254Z,24.80
2018-06-08T10:01:35.778Z,25.10
2018-06-08T10:04:04.822Z,25.20
2018-06-08T10:06:34.102Z,25.30
2018-06-08T10:09:03.197Z,25.40
2018-06-08T10:11:32.507Z,25.50
2018-06-08T10:14:01.696Z,25.60
2018-06-08T10:16:31.022Z,25.70
2018-06-08T10:19:00.175Z,25.80
2018-06-08T10:21:29.158Z,25.80
2018-06-08T10:24:07.677Z,25.90
2018-06-08T10:26:36.655Z,26.00
2018-06-08T10:29:05.943Z,26.10
2018-06-08T10:31:35.031Z,26.10
2018-06-08T10:34:04.052Z,26.20
2018-06-08T10:36:33.047Z,26.30
2018-06-08T10:39:03.777Z,26.30
2018-06-08T10:41:56.595Z,26.30
2018-06-08T10:44:26.205Z,26.30
2018-06-08T10:46:55.538Z,26.30
2018-06-08T10:49:24.995Z,26.40
2018-06-08T10:51:54.260Z,26.40
2018-06-08T10:54:23.468Z,26.40
2018-06-08T10:56:52.770Z,26.40
2018-06-08T10:59:22.689Z,26.40
2018-06-08T11:01:52.069Z,26.40
2018-06-08T11:04:21.356Z,26.50
2018-06-08T11:06:50.958Z,26.50
2018-06-08T11:09:20.810Z,26.60
2018-06-08T11:11:49.832Z,26.80
2018-06-08T11:14:18.834Z,26.90
2018-06-08T11:16:47.825Z,27.00
2018-06-08T11:19:17.067Z,27.10
2018-06-08T11:24:14.987Z,27.20
2018-06-08T11:31:41.734Z,27.60
2018-06-08T11:34:10.999Z,27.70
2018-06-08T11:36:41.084Z,27.80
2018-06-08T11:39:10.395Z,27.90
2018-06-08T11:41:39.608Z,28.10
2018-06-08T11:44:09.003Z,28.10
2018-06-08T11:46:38.240Z,28.10
2018-06-08T11:49:07.554Z,28.10
2018-06-08T11:51:36.755Z,28.10
2018-06-08T11:54:06.076Z,28.10
2018-06-08T11:56:35.094Z,28.00
2018-06-08T11:59:04.111Z,27.90
2018-06-08T12:10:29.540Z,27.70
2018-06-08T12:12:58.773Z,27.80
2018-06-08T12:15:27.983Z,27.80
2018-06-08T12:17:57.343Z,28.00
2018-06-08T12:20:26.620Z,28.10
2018-06-08T12:22:55.860Z,28.20
2018-06-08T12:25:25.979Z,28.10
2018-06-08T12:27:55.151Z,28.10
2018-06-08T12:30:24.392Z,28.10
2018-06-08T12:32:53.644Z,28.10
2018-06-08T12:35:24.830Z,28.20
2018-06-08T12:37:54.600Z,28.30
2018-06-08T12:40:24.531Z,28.30
2018-06-08T12:42:53.775Z,28.30
2018-06-08T12:45:22.925Z,28.40
2018-06-08T12:47:52.212Z,28.40
2018-06-08T12:50:21.464Z,28.40
2018-06-08T12:52:56.952Z,28.30
2018-06-08T12:55:26.392Z,28.20
2018-06-08T12:57:55.392Z,28.20
2018-06-08T13:00:24.442Z,28.10
2018-06-08T13:02:53.402Z,28.00
2018-06-08T13:05:22.549Z,28.10
2018-06-08T13:07:51.551Z,28.20
2018-06-08T13:10:20.498Z,28.20
2018-06-08T13:12:49.499Z,28.30
2018-06-08T13:15:18.725Z,28.30
2018-06-08T13:17:48.281Z,28.50
2018-06-08T13:20:35.643Z,28.60
2018-06-08T13:23:04.642Z,28.70
2018-06-08T13:25:33.602Z,28.70
2018-06-08T13:28:02.961Z,28.80
2018-06-08T13:30:32.338Z,28.80
2018-06-08T13:33:03.118Z,28.90
2018-06-08T13:35:33.989Z,29.00
2018-06-08T13:38:03.088Z,29.10
2018-06-08T13:40:32.086Z,29.10
2018-06-08T13:43:09.425Z,29.20
2018-06-08T13:45:38.465Z,29.20
2018-06-08T13:48:07.818Z,29.10
2018-06-08T13:50:37.302Z,29.10
2018-06-08T13:53:06.371Z,29.00
2018-06-08T13:55:35.559Z,28.90
2018-06-08T13:58:04.554Z,28.80
2018-06-08T14:00:33.636Z,28.80
2018-06-08T14:03:02.648Z,28.80
2018-06-08T14:05:32.032Z,28.70
2018-06-08T14:08:01.284Z,28.60
2018-06-08T14:13:40.723Z,28.40
2018-06-08T14:16:31.339Z,28.40
2018-06-08T14:19:00.330Z,28.50
2018-06-08T14:21:29.314Z,28.60
2018-06-08T14:23:58.326Z,28.60
2018-06-08T14:26:27.290Z,28.60
2018-06-08T14:28:56.302Z,28.70
2018-06-08T14:31:25.291Z,28.60
2018-06-08T14:33:54.282Z,28.70
2018-06-08T14:36:23.306Z,28.70
2018-06-08T14:38:52.262Z,28.80
2018-06-08T14:41:21.242Z,28.80
2018-06-08T14:43:50.261Z,28.80
2018-06-08T14:46:19.235Z,29.00
2018-06-08T14:48:48.569Z,29.00
2018-06-08T14:51:17.589Z,29.00
2018-06-08T14:53:46.558Z,29.00
2018-06-08T14:56:15.554Z,29.10
2018-06-08T14:58:44.553Z,29.10
2018-06-08T15:01:13.555Z,29.20
2018-06-08T15:03:42.542Z,29.20
2018-06-08T15:06:11.780Z,29.20
2018-06-08T15:08:40.725Z,29.20
2018-06-08T15:11:09.978Z,29.20
2018-06-08T15:13:38.987Z,29.20
2018-06-08T15:16:10.150Z,29.20
2018-06-08T15:18:40.294Z,29.10
2018-06-08T15:21:09.245Z,29.10
2018-06-08T15:23:38.960Z,29.10
2018-06-08T15:26:08.919Z,29.00
2018-06-08T15:28:55.516Z,29.00
2018-06-08T15:31:24.505Z,28.90
2018-06-08T15:33:53.553Z,28.80
2018-06-08T15:36:22.559Z,28.80
2018-06-08T15:38:51.580Z,28.70
2018-06-08T15:41:20.535Z,28.50
2018-06-08T15:43:49.567Z,28.50
2018-06-08T15:46:18.536Z,28.40
2018-06-08T15:48:47.519Z,28.30
2018-06-08T15:51:16.523Z,28.30
2018-06-08T15:53:45.523Z,28.20
2018-06-08T15:56:14.691Z,28.10
2018-06-08T15:58:43.947Z,28.10
2018-06-08T16:01:13.195Z,28.00
2018-06-08T16:03:42.479Z,27.90
2018-06-08T16:06:11.704Z,27.80
2018-06-08T16:08:40.751Z,27.80
2018-06-08T16:11:09.719Z,27.70
2018-06-08T16:13:38.711Z,27.70
2018-06-08T16:16:08.883Z,27.60
2018-06-08T16:18:37.915Z,27.60
2018-06-08T16:21:06.971Z,27.50
2018-06-08T16:23:35.966Z,27.50
2018-06-08T16:26:04.972Z,27.50
2018-06-08T16:28:34.011Z,27.40
2018-06-08T16:31:02.983Z,27.40
2018-06-08T16:33:31.966Z,27.40
2018-06-08T16:36:00.952Z,27.30
2018-06-08T16:38:30.104Z,27.20
2018-06-08T16:40:59.593Z,27.20
2018-06-08T16:43:28.664Z,27.20
2018-06-08T16:45:58.874Z,27.10
2018-06-08T16:48:27.850Z,27.10
2018-06-08T16:50:57.765Z,27.00
2018-06-08T16:56:24.946Z,26.80
2018-06-08T16:58:53.918Z,26.70
2018-06-08T17:01:25.979Z,26.50
2018-06-08T17:03:55.426Z,26.40
2018-06-08T17:06:24.464Z,26.30
2018-06-08T17:08:53.682Z,26.20
2018-06-08T17:11:22.896Z,26.20
2018-06-08T17:13:52.173Z,26.10
2018-06-08T17:16:24.381Z,26.00
2018-06-08T17:18:53.657Z,25.90
2018-06-08T17:21:22.811Z,25.80
2018-06-08T17:23:52.258Z,25.70
2018-06-08T17:26:21.602Z,25.60
2018-06-08T17:28:50.777Z,25.50
2018-06-08T17:31:20.114Z,25.40
2018-06-08T17:33:49.340Z,25.30
2018-06-08T17:36:18.567Z,25.20
2018-06-08T17:38:47.856Z,25.20
2018-06-08T17:41:17.099Z,25.10
2018-06-08T17:43:46.404Z,25.00
2018-06-08T17:46:15.703Z,25.00
2018-06-08T17:48:45.200Z,24.90
2018-06-08T18:00:03.497Z,24.70
2018-06-08T18:02:33.091Z,24.60
2018-06-08T18:05:03.456Z,24.60
2018-06-08T18:07:32.745Z,24.50
2018-06-08T18:10:02.013Z,24.50
2018-06-08T18:12:31.275Z,24.40
2018-06-08T18:15:00.513Z,24.40
2018-06-08T18:17:31.169Z,24.30
2018-06-08T18:20:01.721Z,24.30
2018-06-08T18:22:30.980Z,24.30
2018-06-08T18:25:00.234Z,24.20
2018-06-08T18:27:29.463Z,24.20
2018-06-08T18:32:27.387Z,24.10
2018-06-08T18:34:58.866Z,24.10
2018-06-08T18:37:28.223Z,24.00
2018-06-08T18:39:59.220Z,24.00
2018-06-08T18:42:28.531Z,24.00
2018-06-08T18:44:57.853Z,24.00
2018-06-08T18:47:26.818Z,23.90
2018-06-08T18:49:55.808Z,23.80
2018-06-08T18:52:24.801Z,23.80
2018-06-08T18:54:53.763Z,23.70
2018-06-08T18:57:22.754Z,23.60
2018-06-08T18:59:51.982Z,23.60
2018-06-08T19:02:21.243Z,23.50
2018-06-08T19:04:50.233Z,23.50
2018-06-08T19:07:19.267Z,23.40
2018-06-08T19:09:48.199Z,23.40
2018-06-08T19:12:17.214Z,23.30
2018-06-08T19:14:46.193Z,23.30
2018-06-08T19:17:15.171Z,23.20
2018-06-08T19:19:44.179Z,23.10
2018-06-08T19:22:13.227Z,23.10
2018-06-08T19:24:42.199Z,23.10
2018-06-08T19:27:11.202Z,23.00
2018-06-08T19:29:40.335Z,23.00
2018-06-08T19:32:09.590Z,23.00
2018-06-08T19:34:38.876Z,22.90
2018-06-08T19:43:11.608Z,22.70
2018-06-08T19:45:40.603Z,22.70
2018-06-08T19:48:09.578Z,22.60
2018-06-08T19:50:39.066Z,22.60
2018-06-08T19:53:08.126Z,22.50
2018-06-08T19:55:37.140Z,22.50
2018-06-08T19:58:06.142Z,22.40
2018-06-08T20:00:35.190Z,22.40
2018-06-08T20:03:04.195Z,22.30
2018-06-08T20:05:33.162Z,22.30
2018-06-08T20:08:02.163Z,22.30
2018-06-08T20:10:31.522Z,22.20
2018-06-08T20:13:00.487Z,22.20
2018-06-08T20:15:29.496Z,22.10
2018-06-08T20:17:58.477Z,22.10
2018-06-08T20:20:27.439Z,22.10
2018-06-08T20:22:56.650Z,22.10
2018-06-08T20:25:25.906Z,22.00
2018-06-08T20:27:54.855Z,22.00
2018-06-08T20:30:23.918Z,22.00
2018-06-08T20:32:52.894Z,22.00
2018-06-08T20:35:21.838Z,21.90
2018-06-08T20:37:50.854Z,21.90
2018-06-08T20:40:19.894Z,21.90
2018-06-08T20:42:48.833Z,21.90
2018-06-08T20:45:18.118Z,21.90
2018-06-08T20:47:47.102Z,21.90
2018-06-08T20:50:16.074Z,21.80
2018-06-08T20:52:45.093Z,21.90
2018-06-08T20:55:14.168Z,21.80
2018-06-08T20:57:54.122Z,21.80
2018-06-08T21:00:23.147Z,21.80
2018-06-08T21:02:52.102Z,21.70
2018-06-08T21:05:21.122Z,21.80
2018-06-08T21:07:50.126Z,21.70
2018-06-08T21:10:19.141Z,21.70
2018-06-08T21:12:48.339Z,21.70
2018-06-08T21:15:17.802Z,21.70
2018-06-08T21:26:47.838Z,21.60
2018-06-08T21:29:16.918Z,21.50
2018-06-08T21:31:46.248Z,21.50
2018-06-08T21:34:15.214Z,21.50
2018-06-08T21:36:44.211Z,21.40
2018-06-08T21:39:13.186Z,21.40
2018-06-08T21:41:42.154Z,21.40
2018-06-08T21:44:11.155Z,21.30
2018-06-08T21:46:40.186Z,21.30
2018-06-08T21:49:09.365Z,21.30
2018-06-08T21:51:38.609Z,21.20
2018-06-08T21:54:07.882Z,21.20
2018-06-08T21:56:37.084Z,21.10
2018-06-08T21:59:06.800Z,21.10
2018-06-08T22:01:36.216Z,21.10
2018-06-08T22:04:05.614Z,21.00
2018-06-08T22:06:34.884Z,21.00
2018-06-08T22:09:05.171Z,21.00
2018-06-08T22:11:34.206Z,20.90
2018-06-08T22:14:03.395Z,20.90
2018-06-08T22:16:32.700Z,20.80
2018-06-08T22:19:02.573Z,20.80
2018-06-08T22:21:31.845Z,20.70
2018-06-08T22:24:00.900Z,20.70
2018-06-08T22:26:29.839Z,20.60
2018-06-08T22:31:27.412Z,20.50
2018-06-08T22:33:56.373Z,20.50
2018-06-08T22:36:25.363Z,20.40
2018-06-08T22:38:54.354Z,20.40
2018-06-08T22:41:23.334Z,20.30
2018-06-08T22:46:20.863Z,20.20
2018-06-08T22:48:49.839Z,20.20
2018-06-08T22:51:18.848Z,20.20
2018-06-08T22:53:47.854Z,20.10
2018-06-08T22:56:16.842Z,20.10
2018-06-08T22:58:45.890Z,20.10
2018-06-08T23:01:14.959Z,20.10
2018-06-08T23:03:43.948Z,20.00
2018-06-08T23:06:12.954Z,20.00
2018-06-08T23:08:41.962Z,20.00
2018-06-08T23:11:10.919Z,19.90
2018-06-08T23:13:39.946Z,19.90
2018-06-08T23:16:08.935Z,19.80
2018-06-08T23:18:37.914Z,19.80
2018-06-08T23:21:06.917Z,19.80
2018-06-08T23:23:35.914Z,19.80
2018-06-08T23:26:04.915Z,19.80
2018-06-08T23:28:33.918Z,19.70
2018-06-08T23:31:02.920Z,19.80
2018-06-08T23:33:31.915Z,19.70
2018-06-08T23:36:00.903Z,19.70
2018-06-08T23:38:29.896Z,19.60
2018-06-08T23:40:58.867Z,19.60
2018-06-08T23:43:27.902Z,19.50
2018-06-08T23:45:57.128Z,19.50
2018-06-08T23:48:26.142Z,19.40
2018-06-08T23:50:55.163Z,19.40
2018-06-08T23:53:24.131Z,19.40
2018-06-08T23:55:53.106Z,19.30
2018-06-08T23:58:22.242Z,19.30
